createdAt,value
2024-03-27T00:00:24.661Z,100055.84
2024-03-27T00:02:52.147Z,100060.42
2024-03-27T00:05:19.431Z,100059.73
2024-03-27T00:07:47.113Z,100056.54
2024-03-27T00:10:17.516Z,100054.60
2024-03-27T00:12:44.690Z,100058.48
2024-03-27T00:15:13.180Z,100059.23
2024-03-27T00:17:40.338Z,100065.61
2024-03-27T00:20:09.733Z,100069.00
2024-03-27T00:22:37.015Z,100071.16
2024-03-27T00:25:04.969Z,100073.83
2024-03-27T00:27:32.143Z,100075.07
2024-03-27T00:29:59.381Z,100074.01
2024-03-27T00:32:26.510Z,100075.06
2024-03-27T00:34:53.794Z,100078.77
2024-03-27T00:37:21.673Z,100075.77
2024-03-27T00:39:48.750Z,100074.71
2024-03-27T00:42:16.000Z,100069.77
2024-03-27T00:44:43.250Z,100072.23
2024-03-27T00:47:10.350Z,100077.68
2024-03-27T00:49:37.482Z,100078.39
2024-03-27T00:52:05.012Z,100081.05
2024-03-27T00:54:35.021Z,100078.57
2024-03-27T00:57:02.792Z,100077.50
2024-03-27T00:59:33.494Z,100074.67
2024-03-27T01:02:00.566Z,100076.30
2024-03-27T01:04:28.346Z,100077.36
2024-03-27T01:06:55.452Z,100077.54
2024-03-27T01:09:22.539Z,100076.13
2024-03-27T01:11:49.912Z,100077.53
2024-03-27T01:14:17.138Z,100076.31
2024-03-27T01:16:44.282Z,100077.70
2024-03-27T01:19:11.444Z,100076.66
2024-03-27T01:21:38.536Z,100081.79
2024-03-27T01:24:05.786Z,100085.84
2024-03-27T01:26:32.939Z,100088.67
2024-03-27T01:29:00.185Z,100089.02
2024-03-27T01:31:27.246Z,100093.76
2024-03-27T01:33:54.415Z,100097.48
2024-03-27T01:36:21.695Z,100101.73
2024-03-27T01:38:48.832Z,100108.27
2024-03-27T01:41:16.591Z,100105.27
2024-03-27T01:43:43.734Z,100109.33
2024-03-27T01:46:11.143Z,100109.17
2024-03-27T01:48:38.281Z,100109.70
2024-03-27T01:51:05.808Z,100109.70
2024-03-27T01:53:32.904Z,100112.02
2024-03-27T01:56:00.156Z,100115.55
2024-03-27T01:58:27.390Z,100116.09
2024-03-27T02:00:54.523Z,100116.27
2024-03-27T02:03:21.817Z,100114.88
2024-03-27T02:05:48.918Z,100116.82
2024-03-27T02:08:16.109Z,100116.45
2024-03-27T02:10:43.346Z,100116.96
2024-03-27T02:13:10.506Z,100119.79
2024-03-27T02:15:37.600Z,100115.55
2024-03-27T02:18:05.470Z,100113.44
2024-03-27T02:21:25.925Z,100116.09
2024-03-27T02:24:04.063Z,100115.73
2024-03-27T02:26:37.619Z,100113.79
2024-03-27T02:29:05.266Z,100113.29
2024-03-27T02:31:32.597Z,100122.64
2024-03-27T02:33:59.978Z,100129.88
2024-03-27T02:36:27.333Z,100131.31
2024-03-27T02:38:54.499Z,100131.65
2024-03-27T02:41:21.594Z,100131.32
2024-03-27T02:43:48.704Z,100130.96
2024-03-27T02:46:15.819Z,100132.37
2024-03-27T02:48:43.023Z,100129.38
2024-03-27T02:51:10.455Z,100132.20
2024-03-27T02:53:37.627Z,100129.56
2024-03-27T02:56:05.214Z,100133.27
2024-03-27T02:58:32.499Z,100133.44
2024-03-27T03:01:00.248Z,100133.25
2024-03-27T03:03:27.465Z,100130.43
2024-03-27T03:05:54.633Z,100132.20
2024-03-27T03:10:27.740Z,100135.56
2024-03-27T03:12:55.212Z,100137.49
2024-03-27T03:15:22.466Z,100131.48
2024-03-27T03:17:49.630Z,100137.31
2024-03-27T03:20:16.933Z,100138.39
2024-03-27T03:22:44.228Z,100142.79
2024-03-27T03:25:11.779Z,100145.42
2024-03-27T03:27:39.139Z,100151.09
2024-03-27T03:30:07.435Z,100155.85
2024-03-27T03:32:35.514Z,100152.50
2024-03-27T03:35:02.863Z,100155.84
2024-03-27T03:37:30.146Z,100155.48
2024-03-27T03:39:57.320Z,100157.24
2024-03-27T03:42:24.559Z,100159.36
2024-03-27T03:44:51.711Z,100159.17
2024-03-27T03:47:18.823Z,100160.95
2024-03-27T03:49:45.979Z,100164.85
2024-03-27T03:52:13.467Z,100165.00
2024-03-27T03:54:40.539Z,100165.36
2024-03-27T03:57:07.648Z,100165.36
2024-03-27T03:59:34.804Z,100164.30
2024-03-27T04:02:01.899Z,100162.02
2024-03-27T04:04:29.594Z,100160.27
2024-03-27T04:06:57.094Z,100157.61
2024-03-27T04:09:24.177Z,100155.48
2024-03-27T04:11:51.368Z,100158.30
2024-03-27T04:14:18.487Z,100159.71
2024-03-27T04:16:45.832Z,100163.08
2024-03-27T04:19:12.998Z,100163.78
2024-03-27T04:21:40.142Z,100163.43
2024-03-27T04:24:08.130Z,100166.08
2024-03-27T04:26:35.332Z,100162.38
2024-03-27T04:29:03.512Z,100159.92
2024-03-27T04:31:30.739Z,100157.43
2024-03-27T04:33:57.949Z,100153.73
2024-03-27T04:36:25.217Z,100152.67
2024-03-27T04:38:53.443Z,100147.36
2024-03-27T04:41:20.663Z,100153.02
2024-03-27T04:43:47.767Z,100156.16
2024-03-27T04:46:15.906Z,100152.95
2024-03-27T04:48:43.027Z,100155.21
2024-03-27T04:51:10.217Z,100151.61
2024-03-27T04:53:37.331Z,100149.09
2024-03-27T04:56:05.320Z,100154.16
2024-03-27T04:58:32.470Z,100153.39
2024-03-27T05:00:59.520Z,100156.00
2024-03-27T05:03:26.831Z,100152.77
2024-03-27T05:05:54.390Z,100152.86
2024-03-27T05:08:21.470Z,100150.44
2024-03-27T05:10:48.592Z,100145.17
2024-03-27T05:13:16.779Z,100143.05
2024-03-27T05:15:43.874Z,100139.79
2024-03-27T05:18:11.236Z,100136.35
2024-03-27T05:20:38.383Z,100134.70
2024-03-27T05:23:05.508Z,100138.04
2024-03-27T05:25:33.338Z,100141.20
2024-03-27T05:28:00.637Z,100142.84
2024-03-27T05:30:27.867Z,100146.44
2024-03-27T05:32:55.256Z,100155.36
2024-03-27T05:35:23.205Z,100162.16
2024-03-27T05:37:50.572Z,100164.15
2024-03-27T05:40:17.866Z,100166.30
2024-03-27T05:42:46.306Z,100166.09
2024-03-27T05:45:13.660Z,100172.44
2024-03-27T05:47:43.071Z,100175.55
2024-03-27T05:50:11.040Z,100178.11
2024-03-27T05:52:38.131Z,100178.89
2024-03-27T05:55:06.262Z,100183.02
2024-03-27T05:57:33.954Z,100185.40
2024-03-27T06:00:01.290Z,100179.95
2024-03-27T06:02:29.614Z,100178.56
2024-03-27T06:04:56.961Z,100180.17
2024-03-27T06:07:24.057Z,100183.20
2024-03-27T06:09:51.287Z,100187.84
2024-03-27T06:12:18.426Z,100189.65
2024-03-27T06:14:46.303Z,100187.57
2024-03-27T06:17:13.752Z,100183.91
2024-03-27T06:19:40.989Z,100185.39
2024-03-27T06:22:08.165Z,100186.91
2024-03-27T06:24:35.264Z,100187.72
2024-03-27T06:27:02.390Z,100185.67
2024-03-27T06:29:29.730Z,100182.59
2024-03-27T06:31:57.087Z,100185.01
2024-03-27T06:34:24.175Z,100184.20
2024-03-27T06:36:51.271Z,100189.27
2024-03-27T06:39:19.344Z,100192.02
2024-03-27T06:41:46.536Z,100194.58
2024-03-27T06:44:13.715Z,100197.00
2024-03-27T06:46:42.497Z,100192.67
2024-03-27T06:49:22.851Z,100196.40
2024-03-27T06:51:50.104Z,100198.32
2024-03-27T06:54:17.403Z,100199.41
2024-03-27T06:56:45.194Z,100201.58
2024-03-27T06:59:13.125Z,100203.28
2024-03-27T07:01:40.626Z,100194.07
2024-03-27T07:04:07.754Z,100195.04
2024-03-27T07:06:34.898Z,100193.68
2024-03-27T07:09:02.228Z,100197.10
2024-03-27T07:11:29.403Z,100199.89
2024-03-27T07:13:57.821Z,100198.96
2024-03-27T07:16:25.104Z,100193.00
2024-03-27T07:18:52.324Z,100191.64
2024-03-27T07:21:19.559Z,100187.23
2024-03-27T07:23:47.309Z,100190.23
2024-03-27T07:26:14.416Z,100185.89
2024-03-27T07:28:41.545Z,100187.03
2024-03-27T07:31:08.948Z,100187.78
2024-03-27T07:33:36.016Z,100185.69
2024-03-27T07:36:03.270Z,100178.27
2024-03-27T07:38:30.798Z,100176.03
2024-03-27T07:40:57.889Z,100171.49
2024-03-27T07:43:25.069Z,100169.83
2024-03-27T07:45:52.341Z,100170.62
2024-03-27T07:48:19.672Z,100173.34
2024-03-27T07:50:46.751Z,100166.08
2024-03-27T07:53:13.822Z,100162.02
2024-03-27T07:55:41.571Z,100163.23
2024-03-27T07:58:08.691Z,100164.05
2024-03-27T08:00:35.867Z,100166.40
2024-03-27T08:03:04.871Z,100173.25
2024-03-27T08:05:31.985Z,100174.98
2024-03-27T08:07:59.275Z,100172.33
2024-03-27T08:10:27.581Z,100170.77
2024-03-27T08:12:54.927Z,100166.39
2024-03-27T08:15:22.141Z,100160.87
2024-03-27T08:17:49.695Z,100159.67
2024-03-27T08:20:18.948Z,100156.95
2024-03-27T08:22:47.201Z,100154.96
2024-03-27T08:25:14.429Z,100152.21
2024-03-27T08:27:41.535Z,100152.01
2024-03-27T08:30:09.504Z,100149.30
2024-03-27T08:32:36.714Z,100152.38
2024-03-27T08:35:04.463Z,100145.20
2024-03-27T08:37:31.790Z,100143.27
2024-03-27T08:39:59.441Z,100138.28
2024-03-27T08:42:26.544Z,100141.00
2024-03-27T08:44:54.278Z,100139.92
2024-03-27T08:47:21.732Z,100139.77
2024-03-27T08:49:48.890Z,100136.19
2024-03-27T08:52:16.001Z,100138.38
2024-03-27T08:54:43.422Z,100141.84
2024-03-27T08:57:10.659Z,100143.73
2024-03-27T08:59:37.940Z,100142.06
2024-03-27T09:02:05.130Z,100142.20
2024-03-27T09:04:32.973Z,100139.84
2024-03-27T09:07:00.420Z,100133.50
2024-03-27T09:09:27.535Z,100133.70
2024-03-27T09:11:57.274Z,100136.48
2024-03-27T09:14:28.146Z,100141.19
2024-03-27T09:16:55.311Z,100134.92
2024-03-27T09:19:22.396Z,100133.91
2024-03-27T09:21:56.098Z,100133.02
2024-03-27T09:24:24.644Z,100126.85
2024-03-27T09:26:51.999Z,100130.14
2024-03-27T09:29:20.212Z,100126.04
2024-03-27T09:31:47.572Z,100128.14
2024-03-27T09:34:16.134Z,100125.64
2024-03-27T09:36:43.271Z,100122.58
2024-03-27T09:39:10.881Z,100123.44
2024-03-27T09:41:38.016Z,100123.79
2024-03-27T09:44:05.732Z,100122.52
2024-03-27T09:46:33.015Z,100122.70
2024-03-27T09:49:00.122Z,100117.13
2024-03-27T09:51:27.262Z,100109.67
2024-03-27T09:53:54.470Z,100111.29
2024-03-27T09:56:21.565Z,100108.97
2024-03-27T09:58:48.901Z,100112.09
2024-03-27T10:01:16.093Z,100113.99
2024-03-27T10:03:43.195Z,100113.23
2024-03-27T10:06:10.700Z,100118.88
2024-03-27T10:08:37.801Z,100118.99
2024-03-27T10:11:05.080Z,100117.33
2024-03-27T10:13:32.459Z,100112.34
2024-03-27T10:15:59.551Z,100112.64
2024-03-27T10:18:27.186Z,100109.45
2024-03-27T10:20:54.412Z,100108.39
2024-03-27T10:23:21.527Z,100108.16
2024-03-27T10:25:48.637Z,100104.90
2024-03-27T10:28:16.091Z,100103.73
2024-03-27T10:30:43.887Z,100099.74
2024-03-27T10:33:10.981Z,100095.98
2024-03-27T10:35:39.018Z,100089.37
2024-03-27T10:38:06.251Z,100096.49
2024-03-27T10:40:33.387Z,100091.44
2024-03-27T10:43:05.096Z,100083.08
2024-03-27T10:45:32.208Z,100086.17
2024-03-27T10:47:59.326Z,100079.56
2024-03-27T10:50:29.426Z,100074.23
2024-03-27T10:52:56.946Z,100079.97
2024-03-27T10:55:24.099Z,100082.45
2024-03-27T10:57:51.353Z,100085.52
2024-03-27T11:00:19.186Z,100087.60
2024-03-27T11:02:52.788Z,100082.35
2024-03-27T11:05:20.286Z,100080.34
2024-03-27T11:07:47.471Z,100081.19
2024-03-27T11:10:24.655Z,100076.56
2024-03-27T11:12:51.898Z,100071.05
2024-03-27T11:15:19.061Z,100064.45
2024-03-27T11:17:57.045Z,100062.50
2024-03-27T11:20:27.297Z,100058.10
2024-03-27T11:22:54.955Z,100046.13
2024-03-27T11:25:27.286Z,100044.53
2024-03-27T11:27:54.381Z,100045.27
2024-03-27T11:30:22.782Z,100040.09
2024-03-27T11:32:51.337Z,100037.45
2024-03-27T11:35:21.415Z,100030.95
2024-03-27T11:37:48.509Z,100026.69
2024-03-27T11:40:17.321Z,100019.80
2024-03-27T11:42:44.885Z,100017.11
2024-03-27T11:45:12.473Z,100013.39
2024-03-27T11:47:39.744Z,100010.96
2024-03-27T11:50:08.927Z,100013.00
2024-03-27T11:52:36.016Z,100009.09
2024-03-27T11:55:03.580Z,100005.20
2024-03-27T11:57:30.679Z,100003.52
2024-03-27T12:00:24.417Z,99999.12
2024-03-27T12:02:51.577Z,100000.89
2024-03-27T12:05:19.911Z,100000.85
2024-03-27T12:07:47.330Z,99993.27
2024-03-27T12:10:15.424Z,99993.79
2024-03-27T12:12:42.580Z,99997.31
2024-03-27T12:15:09.894Z,100002.96
2024-03-27T12:17:39.014Z,99998.77
2024-03-27T12:20:08.432Z,99989.45
2024-03-27T12:22:36.757Z,99982.98
2024-03-27T12:25:05.777Z,99978.30
2024-03-27T12:27:33.816Z,99972.81
2024-03-27T12:30:01.300Z,99970.45
2024-03-27T12:32:29.006Z,99962.10
2024-03-27T12:34:57.018Z,99964.04
2024-03-27T12:37:24.210Z,99965.84
2024-03-27T12:39:51.763Z,99965.60
2024-03-27T12:42:19.155Z,99957.30
2024-03-27T12:44:46.259Z,99958.52
2024-03-27T12:47:13.479Z,99952.02
2024-03-27T12:49:41.810Z,99950.96
2024-03-27T12:52:09.048Z,99950.70
2024-03-27T12:54:36.410Z,99945.58
2024-03-27T12:57:03.697Z,99946.79
2024-03-27T12:59:30.802Z,99946.73
2024-03-27T13:01:58.075Z,99947.52
2024-03-27T13:04:25.199Z,99943.59
2024-03-27T13:06:52.436Z,99940.52
2024-03-27T13:09:19.634Z,99937.73
2024-03-27T13:11:48.254Z,99935.77
2024-03-27T13:14:15.443Z,99939.10
2024-03-27T13:16:42.604Z,99938.24
2024-03-27T13:19:09.727Z,99936.05
2024-03-27T13:21:37.580Z,99931.98
2024-03-27T13:24:05.347Z,99931.55
2024-03-27T13:26:32.458Z,99929.86
2024-03-27T13:28:59.640Z,99929.29
2024-03-27T13:31:26.850Z,99925.75
2024-03-27T13:33:54.184Z,99926.98
2024-03-27T13:36:21.403Z,99925.62
2024-03-27T13:38:48.592Z,99925.60
2024-03-27T13:41:15.707Z,99922.84
2024-03-27T13:43:43.423Z,99921.72
2024-03-27T13:46:10.771Z,99920.74
2024-03-27T13:48:37.866Z,99918.98
2024-03-27T13:51:05.193Z,99918.35
2024-03-27T13:53:32.844Z,99915.52
2024-03-27T13:56:00.136Z,99911.13
2024-03-27T13:58:27.272Z,99912.72
2024-03-27T14:00:54.566Z,99913.81
2024-03-27T14:03:21.746Z,99916.11
2024-03-27T14:05:49.215Z,99916.29
2024-03-27T14:08:16.717Z,99914.31
2024-03-27T14:10:43.836Z,99912.86
2024-03-27T14:13:12.713Z,99911.10
2024-03-27T14:15:40.020Z,99907.70
2024-03-27T14:18:07.229Z,99910.80
2024-03-27T14:20:34.529Z,99913.44
2024-03-27T14:23:02.221Z,99912.74
2024-03-27T14:25:29.561Z,99911.98
2024-03-27T14:27:57.163Z,99914.39
2024-03-27T14:30:24.686Z,99915.33
2024-03-27T14:32:51.949Z,99919.16
2024-03-27T14:35:19.313Z,99921.73
2024-03-27T14:37:46.679Z,99920.57
2024-03-27T14:40:14.003Z,99921.36
2024-03-27T14:42:41.124Z,99922.54
2024-03-27T14:45:08.798Z,99920.98
2024-03-27T14:47:35.928Z,99919.27
2024-03-27T14:50:03.517Z,99922.48
2024-03-27T14:52:30.710Z,99921.30
2024-03-27T14:54:57.955Z,99924.51
2024-03-27T14:57:28.134Z,99927.38
2024-03-27T14:59:55.354Z,99928.24
2024-03-27T15:02:23.241Z,99928.30
2024-03-27T15:04:50.367Z,99926.02
2024-03-27T15:07:17.474Z,99926.41
2024-03-27T15:09:45.915Z,99927.89
2024-03-27T15:12:13.337Z,99927.05
2024-03-27T15:14:40.692Z,99925.00
2024-03-27T15:17:08.271Z,99923.09
2024-03-27T15:19:36.106Z,99920.80
2024-03-27T15:22:03.311Z,99919.81
2024-03-27T15:27:32.570Z,99924.32
2024-03-27T15:30:00.326Z,99932.60
2024-03-27T15:32:27.929Z,99930.58
2024-03-27T15:34:55.145Z,99928.21
2024-03-27T15:37:24.143Z,99929.48
2024-03-27T15:39:51.292Z,99926.52
2024-03-27T15:42:20.194Z,99925.53
2024-03-27T15:44:47.453Z,99922.44
2024-03-27T15:47:15.091Z,99925.23
2024-03-27T15:49:42.374Z,99925.48
2024-03-27T15:52:09.480Z,99923.39
2024-03-27T15:54:37.009Z,99927.27
2024-03-27T15:57:04.447Z,99928.09
2024-03-27T15:59:31.672Z,99927.05
2024-03-27T16:02:00.211Z,99926.62
2024-03-27T16:04:33.257Z,99931.56
2024-03-27T16:07:03.332Z,99933.56
2024-03-27T16:09:32.645Z,99933.95
2024-03-27T16:11:59.773Z,99936.11
2024-03-27T16:14:27.005Z,99934.84
2024-03-27T16:16:54.187Z,99936.60
2024-03-27T16:19:21.546Z,99937.45
2024-03-27T16:21:48.901Z,99939.55
2024-03-27T16:24:15.996Z,99942.08
2024-03-27T16:26:43.319Z,99940.98
2024-03-27T16:29:10.482Z,99940.02
2024-03-27T16:31:37.748Z,99941.95
2024-03-27T16:34:06.222Z,99939.42
2024-03-27T16:36:33.396Z,99938.48
2024-03-27T16:39:00.585Z,99940.73
2024-03-27T16:41:27.834Z,99939.28
2024-03-27T16:43:54.999Z,99934.71
2024-03-27T16:46:22.199Z,99937.81
2024-03-27T16:48:49.392Z,99940.04
2024-03-27T16:51:16.518Z,99943.89
2024-03-27T16:53:43.949Z,99942.53
2024-03-27T16:56:11.274Z,99943.10
2024-03-27T16:58:38.663Z,99946.68
2024-03-27T17:01:05.955Z,99944.95
2024-03-27T17:03:33.058Z,99950.33
2024-03-27T17:06:00.317Z,99954.65
2024-03-27T17:08:27.912Z,99959.85
2024-03-27T17:10:55.063Z,99956.85
2024-03-27T17:13:22.282Z,99957.98
2024-03-27T17:15:49.591Z,99957.84
2024-03-27T17:18:17.043Z,99958.44
2024-03-27T17:20:44.334Z,99954.50
2024-03-27T17:23:11.603Z,99955.96
2024-03-27T17:25:38.755Z,99956.30
2024-03-27T17:28:06.124Z,99955.15
2024-03-27T17:30:33.269Z,99950.91
2024-03-27T17:33:00.512Z,99945.91
2024-03-27T17:35:28.064Z,99941.32
2024-03-27T17:37:55.329Z,99941.39
2024-03-27T17:40:22.527Z,99940.79
2024-03-27T17:42:49.785Z,99938.10
2024-03-27T17:45:17.114Z,99936.48
2024-03-27T17:47:44.470Z,99937.03
2024-03-27T17:50:12.414Z,99936.89
2024-03-27T17:52:39.699Z,99937.46
2024-03-27T17:55:07.618Z,99934.46
2024-03-27T17:57:34.769Z,99935.36
2024-03-27T18:00:02.980Z,99927.69
2024-03-27T18:02:34.303Z,99922.48
2024-03-27T18:05:01.854Z,99923.31
2024-03-27T18:07:29.239Z,99920.66
2024-03-27T18:09:56.494Z,99918.34
2024-03-27T18:12:23.635Z,99919.81
2024-03-27T18:14:51.215Z,99917.55
2024-03-27T18:17:18.766Z,99915.70
2024-03-27T18:19:46.119Z,99916.35
2024-03-27T18:22:13.373Z,99918.66
2024-03-27T18:24:40.555Z,99915.96
2024-03-27T18:27:07.810Z,99916.53
2024-03-27T18:29:35.412Z,99919.73
2024-03-27T18:32:02.679Z,99917.23
2024-03-27T18:34:30.272Z,99922.55
2024-03-27T18:36:57.855Z,99926.02
2024-03-27T18:39:24.999Z,99921.45
2024-03-27T18:41:52.203Z,99917.40
2024-03-27T18:44:19.429Z,99915.09
2024-03-27T18:46:46.610Z,99920.99
2024-03-27T18:49:13.838Z,99919.10
2024-03-27T18:51:41.045Z,99912.23
2024-03-27T18:54:08.161Z,99909.70
2024-03-27T18:56:35.583Z,99910.35
2024-03-27T18:59:02.800Z,99906.40
2024-03-27T19:01:29.913Z,99908.32
2024-03-27T19:03:57.256Z,99906.32
2024-03-27T19:06:26.596Z,99909.10
2024-03-27T19:08:53.724Z,99906.67
2024-03-27T19:11:27.950Z,99905.45
2024-03-27T19:14:02.156Z,99910.09
2024-03-27T19:16:31.406Z,99907.23
2024-03-27T19:19:00.028Z,99908.33
2024-03-27T19:21:27.129Z,99907.31
2024-03-27T19:23:54.635Z,99908.62
2024-03-27T19:26:22.018Z,99907.14
2024-03-27T19:28:50.038Z,99909.36
2024-03-27T19:31:17.614Z,99904.30
2024-03-27T19:33:44.834Z,99901.73
2024-03-27T19:36:11.956Z,99896.14
2024-03-27T19:38:42.228Z,99900.35
2024-03-27T19:41:09.373Z,99897.02
2024-03-27T19:43:36.581Z,99892.09
2024-03-27T19:46:03.896Z,99889.23
2024-03-27T19:48:34.241Z,99885.14
2024-03-27T19:51:02.198Z,99881.61
2024-03-27T19:53:29.432Z,99875.21
2024-03-27T19:55:56.730Z,99868.49
2024-03-27T19:58:23.883Z,99866.75
2024-03-27T20:00:51.137Z,99866.63
2024-03-27T20:03:18.265Z,99861.21
2024-03-27T20:05:45.468Z,99859.04
2024-03-27T20:08:12.675Z,99861.15
2024-03-27T20:10:40.350Z,99859.34
2024-03-27T20:13:07.909Z,99858.43
2024-03-27T20:15:39.807Z,99857.29
2024-03-27T20:18:07.202Z,99859.55
2024-03-27T20:20:38.567Z,99853.71
2024-03-27T20:23:05.717Z,99854.09
2024-03-27T20:25:32.875Z,99852.53
2024-03-27T20:28:00.000Z,99853.61
2024-03-27T20:30:28.232Z,99851.15
2024-03-27T20:32:55.432Z,99856.00
2024-03-27T20:35:22.602Z,99855.73
2024-03-27T20:37:50.268Z,99854.92
2024-03-27T20:40:17.866Z,99851.45
2024-03-27T20:42:48.263Z,99851.59
2024-03-27T20:45:15.507Z,99847.80
2024-03-27T20:47:42.692Z,99844.90
2024-03-27T20:50:10.106Z,99841.41
2024-03-27T20:52:37.441Z,99835.05
2024-03-27T20:55:06.609Z,99833.30
2024-03-27T20:57:33.729Z,99834.94
2024-03-27T21:00:01.038Z,99830.52
2024-03-27T21:02:28.530Z,99824.13
2024-03-27T21:04:55.783Z,99820.39
2024-03-27T21:07:23.028Z,99817.91
2024-03-27T21:09:51.519Z,99817.23
2024-03-27T21:12:20.099Z,99814.06
2024-03-27T21:14:47.550Z,99815.02
2024-03-27T21:17:17.290Z,99817.63
2024-03-27T21:19:44.379Z,99817.51
2024-03-27T21:22:11.609Z,99818.48
2024-03-27T21:24:39.570Z,99815.56
2024-03-27T21:27:06.717Z,99818.29
2024-03-27T21:29:33.930Z,99819.56
2024-03-27T21:32:01.187Z,99817.25
2024-03-27T21:34:28.416Z,99814.59
2024-03-27T21:36:55.947Z,99813.86
2024-03-27T21:39:23.148Z,99815.27
2024-03-27T21:41:50.294Z,99808.70
2024-03-27T21:44:17.663Z,99809.77
2024-03-27T21:46:44.904Z,99809.25
2024-03-27T21:49:12.063Z,99809.27
2024-03-27T21:51:39.195Z,99802.58
2024-03-27T21:54:06.348Z,99802.79
2024-03-27T21:56:33.602Z,99806.35
2024-03-27T21:59:01.071Z,99806.38
2024-03-27T22:01:28.262Z,99799.40
2024-03-27T22:03:55.464Z,99801.14
2024-03-27T22:06:22.935Z,99802.32
2024-03-27T22:08:51.773Z,99802.27
2024-03-27T22:11:20.719Z,99800.66
2024-03-27T22:13:49.964Z,99797.61
2024-03-27T22:16:17.115Z,99796.02
2024-03-27T22:18:44.219Z,99795.69
2024-03-27T22:21:16.064Z,99800.15
2024-03-27T22:23:44.009Z,99796.46
2024-03-27T22:26:11.127Z,99791.48
2024-03-27T22:28:40.456Z,99793.48
2024-03-27T22:31:08.232Z,99794.52
2024-03-27T22:33:36.373Z,99795.57
2024-03-27T22:36:10.749Z,99795.00
2024-03-27T22:38:38.268Z,99797.11
2024-03-27T22:41:05.419Z,99796.04
2024-03-27T22:43:32.755Z,99791.06
2024-03-27T22:46:01.094Z,99788.42
2024-03-27T22:48:28.335Z,99785.83
2024-03-27T22:50:59.670Z,99785.32
2024-03-27T22:53:27.375Z,99792.27
2024-03-27T22:56:01.465Z,99789.98
2024-03-27T22:58:29.308Z,99790.72
2024-03-27T23:00:56.790Z,99792.48
2024-03-27T23:03:24.529Z,99795.37
2024-03-27T23:05:51.831Z,99792.72
2024-03-27T23:08:19.311Z,99792.00
2024-03-27T23:10:46.836Z,99791.88
2024-03-27T23:13:15.557Z,99796.05
2024-03-27T23:15:45.526Z,99795.23
2024-03-27T23:18:13.534Z,99790.98
2024-03-27T23:20:40.622Z,99792.65
2024-03-27T23:23:07.733Z,99789.83
2024-03-27T23:25:34.890Z,99784.52
2024-03-27T23:28:02.077Z,99784.90
2024-03-27T23:30:29.216Z,99782.10
2024-03-27T23:32:56.451Z,99780.69
2024-03-27T23:35:24.024Z,99778.58
2024-03-27T23:37:51.208Z,99779.69
2024-03-27T23:40:18.474Z,99773.90
2024-03-27T23:42:45.616Z,99772.86
2024-03-27T23:45:12.733Z,99770.58
2024-03-27T23:47:39.865Z,99765.60
2024-03-27T23:50:07.729Z,99762.73
2024-03-27T23:52:35.028Z,99764.80
2024-03-27T23:55:04.220Z,99760.61
2024-03-27T23:57:31.462Z,99758.92
2024-03-27T23:59:58.871Z,99760.10
